createdAt,value
2022-12-17T00:02:42.354Z,53.21
2022-12-17T00:05:29.680Z,52.97
2022-12-17T00:08:22.161Z,53.08
2022-12-17T00:11:07.686Z,53.03
2022-12-17T00:13:53.216Z,53.09
2022-12-17T00:16:40.804Z,53.03
2022-12-17T00:19:26.490Z,53.08
2022-12-17T00:22:13.426Z,52.86
2022-12-17T00:24:59.022Z,53.07
2022-12-17T00:27:44.668Z,53.20
2022-12-17T00:30:30.868Z,53.04
2022-12-17T00:33:16.437Z,53.05
2022-12-17T00:36:02.245Z,52.95
2022-12-17T00:38:49.321Z,53.00
2022-12-17T00:41:34.964Z,52.98
2022-12-17T00:44:20.814Z,52.71
2022-12-17T00:47:06.500Z,52.86
2022-12-17T00:49:52.023Z,52.77
2022-12-17T00:52:37.884Z,52.85
2022-12-17T00:55:26.015Z,52.85
2022-12-17T00:58:12.625Z,52.77
2022-12-17T01:00:58.694Z,52.84
2022-12-17T01:03:45.070Z,53.00
2022-12-17T01:06:30.900Z,52.85
2022-12-17T01:09:17.026Z,52.82
2022-12-17T01:12:04.212Z,52.82
2022-12-17T01:14:51.980Z,52.89
2022-12-17T01:17:37.522Z,52.67
2022-12-17T01:20:24.781Z,52.72
2022-12-17T01:23:10.268Z,52.45
2022-12-17T01:25:56.374Z,52.69
2022-12-17T01:28:44.460Z,52.94
2022-12-17T01:31:34.955Z,52.87
2022-12-17T01:34:21.375Z,52.86
2022-12-17T01:37:06.906Z,52.97
2022-12-17T01:39:52.380Z,52.94
2022-12-17T01:42:38.017Z,52.60
2022-12-17T01:45:29.516Z,52.81
2022-12-17T01:48:19.346Z,52.75
2022-12-17T01:51:09.802Z,52.76
2022-12-17T01:53:59.914Z,52.91
2022-12-17T01:56:46.392Z,53.06
2022-12-17T01:59:33.869Z,52.86
2022-12-17T02:02:21.033Z,52.73
2022-12-17T02:05:06.851Z,52.96
2022-12-17T02:08:12.051Z,52.80
2022-12-17T02:11:08.409Z,52.68
2022-12-17T02:14:00.265Z,53.03
2022-12-17T02:16:58.310Z,52.78
2022-12-17T02:19:58.054Z,52.81
2022-12-17T02:22:55.290Z,52.62
2022-12-17T02:25:51.410Z,52.77
2022-12-17T02:28:39.946Z,52.90
2022-12-17T02:31:26.862Z,52.91
2022-12-17T02:34:13.208Z,52.88
2022-12-17T02:36:58.843Z,52.86
2022-12-17T02:39:44.852Z,52.85
2022-12-17T02:42:30.436Z,52.64
2022-12-17T02:45:17.416Z,52.65
2022-12-17T02:48:04.283Z,52.75
2022-12-17T02:50:50.345Z,52.86
2022-12-17T02:53:38.546Z,52.82
2022-12-17T02:56:24.412Z,52.72
2022-12-17T02:59:10.020Z,52.83
2022-12-17T03:01:57.300Z,52.73
2022-12-17T03:04:43.239Z,52.80
2022-12-17T03:07:28.844Z,52.69
2022-12-17T03:10:14.361Z,52.61
2022-12-17T03:13:00.111Z,52.47
2022-12-17T03:15:45.771Z,52.77
2022-12-17T03:18:33.280Z,52.65
2022-12-17T03:21:18.914Z,52.71
2022-12-17T03:24:03.649Z,52.52
2022-12-17T03:26:50.684Z,52.50
2022-12-17T03:29:36.255Z,52.67
2022-12-17T03:32:22.019Z,52.62
2022-12-17T03:35:09.022Z,52.51
2022-12-17T03:38:02.926Z,52.71
2022-12-17T03:40:48.787Z,52.52
2022-12-17T03:43:34.596Z,52.51
2022-12-17T03:46:20.519Z,52.59
2022-12-17T03:49:06.381Z,52.76
2022-12-17T03:51:53.551Z,52.62
2022-12-17T03:54:39.219Z,52.89
2022-12-17T03:57:24.692Z,52.77
2022-12-17T04:00:10.304Z,52.62
2022-12-17T04:02:56.229Z,52.51
2022-12-17T04:05:41.922Z,52.55
2022-12-17T04:08:29.112Z,52.58
2022-12-17T04:11:14.579Z,52.74
2022-12-17T04:14:00.081Z,52.68
2022-12-17T04:16:45.524Z,52.86
2022-12-17T04:19:30.955Z,52.80
2022-12-17T04:22:16.542Z,52.98
2022-12-17T04:28:03.234Z,53.05
2022-12-17T04:30:48.854Z,52.96
2022-12-17T04:33:34.910Z,52.77
2022-12-17T04:36:20.699Z,52.73
2022-12-17T04:39:06.378Z,52.70
2022-12-17T04:41:52.233Z,52.72
2022-12-17T04:44:39.498Z,52.93
2022-12-17T04:47:24.921Z,52.66
2022-12-17T04:50:10.929Z,52.61
2022-12-17T04:53:11.291Z,52.80
2022-12-17T04:55:59.351Z,52.78
2022-12-17T04:58:44.875Z,52.68
2022-12-17T05:01:32.017Z,52.53
2022-12-17T05:04:17.668Z,52.52
2022-12-17T05:07:03.455Z,52.67
2022-12-17T05:09:49.007Z,52.77
2022-12-17T05:12:34.543Z,52.57
2022-12-17T05:15:20.251Z,52.64
2022-12-17T05:18:07.137Z,52.62
2022-12-17T05:20:52.765Z,52.80
2022-12-17T05:23:37.749Z,52.64
2022-12-17T05:26:38.420Z,52.69
2022-12-17T05:29:38.486Z,52.54
2022-12-17T05:32:24.347Z,52.55
2022-12-17T05:35:11.527Z,52.59
2022-12-17T05:37:57.120Z,52.51
2022-12-17T05:40:42.629Z,52.43
2022-12-17T05:43:31.426Z,52.73
2022-12-17T05:46:18.462Z,52.44
2022-12-17T05:49:04.278Z,52.40
2022-12-17T05:51:51.314Z,52.60
2022-12-17T05:54:37.198Z,52.43
2022-12-17T05:57:22.811Z,52.29
2022-12-17T06:00:08.348Z,52.49
2022-12-17T06:02:54.041Z,52.62
2022-12-17T06:05:39.710Z,52.58
2022-12-17T06:08:28.338Z,52.72
2022-12-17T06:11:18.071Z,52.42
2022-12-17T06:14:05.089Z,52.68
2022-12-17T06:16:50.561Z,52.40
2022-12-17T06:19:36.039Z,52.39
2022-12-17T06:22:21.711Z,52.48
2022-12-17T06:25:08.493Z,52.36
2022-12-17T06:27:54.068Z,52.48
2022-12-17T06:30:39.517Z,52.32
2022-12-17T06:33:26.382Z,52.39
2022-12-17T06:36:19.720Z,52.28
2022-12-17T06:39:07.767Z,52.38
2022-12-17T06:42:02.171Z,52.37
2022-12-17T06:44:49.591Z,52.33
2022-12-17T06:47:35.449Z,52.34
2022-12-17T06:50:21.402Z,52.42
2022-12-17T06:53:06.181Z,52.34
2022-12-17T06:55:51.882Z,52.52
2022-12-17T06:58:38.998Z,52.29
2022-12-17T07:01:25.069Z,52.41
2022-12-17T07:04:11.072Z,52.51
2022-12-17T07:06:56.646Z,52.25
2022-12-17T07:09:42.211Z,52.34
2022-12-17T07:12:36.331Z,52.32
2022-12-17T07:15:24.512Z,52.65
2022-12-17T07:18:14.658Z,52.39
2022-12-17T07:21:00.572Z,52.54
2022-12-17T07:23:46.549Z,52.52
2022-12-17T07:26:32.414Z,52.31
2022-12-17T07:29:18.400Z,52.48
2022-12-17T07:32:05.573Z,52.40
2022-12-17T07:34:51.166Z,52.21
2022-12-17T07:37:37.098Z,52.32
2022-12-17T07:40:23.742Z,52.19
2022-12-17T07:43:09.327Z,52.20
2022-12-17T07:45:55.125Z,52.29
2022-12-17T07:48:42.244Z,52.20
2022-12-17T07:51:27.678Z,52.29
2022-12-17T07:54:13.546Z,52.11
2022-12-17T07:56:59.114Z,52.22
2022-12-17T07:59:44.813Z,52.34
2022-12-17T08:02:30.449Z,52.08
2022-12-17T08:05:17.541Z,52.21
2022-12-17T08:08:03.247Z,52.17
2022-12-17T08:10:48.843Z,52.18
2022-12-17T08:13:35.106Z,52.19
2022-12-17T08:16:35.861Z,52.08
2022-12-17T08:19:21.690Z,52.27
2022-12-17T08:22:08.891Z,52.16
2022-12-17T08:24:54.690Z,52.10
2022-12-17T08:27:40.139Z,51.97
2022-12-17T08:30:27.125Z,52.29
2022-12-17T08:33:13.014Z,52.10
2022-12-17T08:35:58.606Z,52.14
2022-12-17T08:38:45.820Z,51.96
2022-12-17T08:41:31.212Z,52.08
2022-12-17T08:44:16.976Z,52.13
2022-12-17T08:47:02.766Z,51.93
2022-12-17T08:49:49.768Z,51.87
2022-12-17T08:52:35.343Z,51.65
2022-12-17T08:55:23.034Z,51.65
2022-12-17T08:58:12.610Z,51.47
2022-12-17T09:00:58.952Z,51.20
2022-12-17T09:03:44.818Z,51.29
2022-12-17T09:06:35.919Z,51.21
2022-12-17T09:09:25.114Z,51.00
2022-12-17T09:12:12.287Z,51.08
2022-12-17T09:14:57.821Z,51.02
2022-12-17T09:17:43.351Z,50.82
2022-12-17T09:20:29.807Z,50.71
2022-12-17T09:23:15.868Z,50.70
2022-12-17T09:26:01.733Z,50.71
2022-12-17T09:28:48.715Z,50.41
2022-12-17T09:31:37.547Z,50.48
2022-12-17T09:34:23.720Z,50.63
2022-12-17T09:37:09.611Z,50.74
2022-12-17T09:39:56.454Z,50.80
2022-12-17T09:42:54.449Z,51.19
2022-12-17T09:45:51.508Z,51.30
2022-12-17T09:48:44.070Z,51.67
2022-12-17T09:51:41.742Z,51.74
2022-12-17T09:54:38.623Z,51.84
2022-12-17T09:57:31.080Z,51.80
2022-12-17T10:00:17.014Z,51.97
2022-12-17T10:03:04.907Z,52.03
2022-12-17T10:05:52.026Z,51.77
2022-12-17T10:08:40.471Z,51.31
2022-12-17T10:11:38.019Z,51.74
2022-12-17T10:14:34.717Z,51.37
2022-12-17T10:17:21.205Z,51.23
2022-12-17T10:20:13.586Z,51.20
2022-12-17T10:23:04.159Z,51.01
2022-12-17T10:25:50.630Z,50.58
2022-12-17T10:28:39.371Z,49.92
2022-12-17T10:31:29.080Z,49.54
2022-12-17T10:34:15.973Z,49.51
2022-12-17T10:37:07.946Z,49.36
2022-12-17T10:39:54.327Z,48.87
2022-12-17T10:42:44.435Z,48.40
2022-12-17T10:45:43.119Z,48.41
2022-12-17T10:48:38.866Z,48.34
2022-12-17T10:51:36.504Z,48.00
2022-12-17T10:54:40.754Z,47.57
2022-12-17T10:57:46.002Z,47.05
2022-12-17T11:00:49.022Z,46.92
2022-12-17T11:03:52.496Z,46.90
2022-12-17T11:06:44.717Z,46.16
2022-12-17T11:09:46.732Z,45.77
2022-12-17T11:12:35.120Z,45.60
2022-12-17T11:15:32.435Z,45.24
2022-12-17T11:18:20.291Z,44.72
2022-12-17T11:21:10.924Z,44.22
2022-12-17T11:24:03.382Z,44.14
2022-12-17T11:26:55.603Z,44.20
2022-12-17T11:29:41.880Z,43.96
2022-12-17T11:33:01.168Z,44.07
2022-12-17T11:35:56.331Z,44.12
2022-12-17T11:38:53.806Z,44.29
2022-12-17T11:41:55.481Z,44.14
2022-12-17T11:45:00.976Z,44.24
2022-12-17T11:47:59.122Z,43.97
2022-12-17T11:50:51.503Z,44.12
2022-12-17T11:54:01.634Z,44.44
2022-12-17T11:56:54.479Z,43.98
2022-12-17T11:59:52.883Z,44.25
2022-12-17T12:02:57.698Z,44.13
2022-12-17T12:05:56.925Z,44.12
2022-12-17T12:08:46.464Z,44.46
2022-12-17T12:11:46.220Z,44.41
2022-12-17T12:14:47.725Z,44.29
2022-12-17T12:18:02.011Z,44.66
2022-12-17T12:21:32.001Z,44.52
2022-12-17T12:24:46.117Z,44.76
2022-12-17T12:27:42.998Z,44.45
2022-12-17T12:30:35.807Z,44.72
2022-12-17T12:33:36.736Z,44.93
2022-12-17T12:36:30.667Z,44.87
2022-12-17T12:39:19.816Z,44.70
2022-12-17T12:42:11.963Z,44.72
2022-12-17T12:45:07.689Z,45.07
2022-12-17T12:48:04.971Z,44.88
2022-12-17T12:51:03.563Z,45.08
2022-12-17T12:53:49.155Z,45.19
2022-12-17T12:56:52.328Z,45.21
2022-12-17T12:59:46.727Z,45.19
2022-12-17T13:02:44.634Z,45.20
2022-12-17T13:05:34.242Z,45.33
2022-12-17T13:08:22.644Z,45.26
2022-12-17T13:10:53.217Z,45.20
2022-12-17T13:13:55.907Z,45.48
2022-12-17T13:16:36.639Z,45.58
2022-12-17T13:19:19.754Z,45.69
2022-12-17T13:21:49.971Z,45.24
2022-12-17T13:24:28.492Z,45.63
2022-12-17T13:26:56.763Z,45.61
2022-12-17T13:29:29.648Z,45.50
2022-12-17T13:32:22.818Z,45.67
2022-12-17T13:35:10.455Z,45.90
2022-12-17T13:37:53.637Z,45.62
2022-12-17T13:40:35.920Z,45.86
2022-12-17T13:43:04.440Z,45.68
2022-12-17T13:45:37.531Z,45.68
2022-12-17T13:48:06.167Z,45.94
2022-12-17T13:50:36.018Z,45.87
2022-12-17T13:53:13.298Z,45.62
2022-12-17T13:55:42.077Z,45.58
2022-12-17T13:58:27.517Z,45.74
2022-12-17T14:01:07.734Z,45.84
2022-12-17T14:04:05.400Z,45.84
2022-12-17T14:06:27.820Z,45.59
2022-12-17T14:08:58.731Z,45.74
2022-12-17T14:11:44.995Z,45.93
2022-12-17T14:14:25.190Z,45.83
2022-12-17T14:16:53.512Z,45.77
2022-12-17T14:19:25.196Z,45.53
2022-12-17T14:21:53.832Z,45.62
2022-12-17T14:24:29.064Z,45.56
2022-12-17T14:26:59.818Z,45.93
2022-12-17T14:29:31.145Z,45.66
2022-12-17T14:32:03.168Z,45.87
2022-12-17T14:34:42.701Z,45.51
2022-12-17T14:37:19.695Z,45.54
2022-12-17T14:39:49.965Z,45.68
2022-12-17T14:42:29.617Z,45.60
2022-12-17T14:45:02.262Z,45.64
2022-12-17T14:47:32.805Z,45.75
2022-12-17T14:50:06.254Z,45.57
2022-12-17T14:52:42.448Z,45.63
2022-12-17T14:55:34.029Z,45.56
2022-12-17T14:58:22.007Z,45.63
2022-12-17T15:00:54.663Z,45.71
2022-12-17T15:03:27.517Z,45.56
2022-12-17T15:05:59.495Z,45.71
2022-12-17T15:08:31.442Z,45.82
2022-12-17T15:11:01.088Z,45.79
2022-12-17T15:13:29.506Z,45.94
2022-12-17T15:15:58.784Z,45.74
2022-12-17T15:18:27.074Z,45.62
2022-12-17T15:20:55.362Z,45.71
2022-12-17T15:23:25.342Z,45.84
2022-12-17T15:25:55.847Z,45.77
2022-12-17T15:28:29.798Z,45.66
2022-12-17T15:30:58.141Z,45.74
2022-12-17T15:33:26.426Z,45.81
2022-12-17T15:35:54.669Z,45.90
2022-12-17T15:38:22.928Z,45.99
2022-12-17T15:40:54.553Z,46.39
2022-12-17T15:43:24.088Z,46.29
2022-12-17T15:45:54.324Z,46.13
2022-12-17T15:48:23.699Z,46.06
2022-12-17T15:50:51.977Z,45.87
2022-12-17T15:53:20.232Z,46.36
2022-12-17T15:55:48.475Z,46.14
2022-12-17T15:58:16.712Z,46.26
2022-12-17T16:00:46.436Z,46.11
2022-12-17T16:03:14.908Z,46.04
2022-12-17T16:05:43.220Z,46.07
2022-12-17T16:08:11.586Z,45.89
2022-12-17T16:10:40.059Z,45.88
2022-12-17T16:13:08.361Z,46.13
2022-12-17T16:15:36.703Z,46.04
2022-12-17T16:18:06.580Z,45.95
2022-12-17T16:20:34.869Z,46.03
2022-12-17T16:23:03.130Z,45.86
2022-12-17T16:25:31.456Z,46.06
2022-12-17T16:27:59.742Z,46.10
2022-12-17T16:30:27.996Z,46.11
2022-12-17T16:32:59.094Z,45.98
2022-12-17T16:35:29.540Z,45.96
2022-12-17T16:37:57.775Z,45.99
2022-12-17T16:40:26.166Z,45.99
2022-12-17T16:42:54.455Z,45.98
2022-12-17T16:45:22.714Z,45.94
2022-12-17T16:47:51.014Z,46.10
2022-12-17T16:50:19.342Z,45.99
2022-12-17T16:52:48.992Z,45.74
2022-12-17T16:55:17.473Z,45.71
2022-12-17T16:57:48.520Z,46.10
2022-12-17T17:00:17.265Z,45.94
2022-12-17T17:02:53.015Z,45.81
2022-12-17T17:05:21.852Z,45.99
2022-12-17T17:07:52.092Z,45.91
2022-12-17T17:10:20.849Z,46.09
2022-12-17T17:12:49.156Z,46.00
2022-12-17T17:15:17.609Z,46.01
2022-12-17T17:17:54.158Z,46.10
2022-12-17T17:20:24.613Z,46.36
2022-12-17T17:22:57.096Z,46.31
2022-12-17T17:25:34.720Z,46.23
2022-12-17T17:28:12.483Z,46.17
2022-12-17T17:30:40.775Z,46.07
2022-12-17T17:33:09.036Z,46.48
2022-12-17T17:35:37.317Z,46.27
2022-12-17T17:38:06.928Z,46.28
2022-12-17T17:40:35.207Z,46.37
2022-12-17T17:43:03.481Z,46.22
2022-12-17T17:45:31.843Z,45.82
2022-12-17T17:48:00.078Z,46.09
2022-12-17T17:50:28.434Z,45.95
2022-12-17T17:52:56.697Z,46.21
2022-12-17T17:55:26.391Z,45.85
2022-12-17T17:57:54.934Z,45.75
2022-12-17T18:00:23.178Z,46.20
2022-12-17T18:02:51.675Z,46.45
2022-12-17T18:05:20.059Z,46.44
2022-12-17T18:07:48.429Z,46.23
2022-12-17T18:10:16.768Z,46.07
2022-12-17T18:13:06.203Z,46.56
2022-12-17T18:15:34.613Z,46.06
2022-12-17T18:18:02.843Z,46.48
2022-12-17T18:20:31.176Z,46.95
2022-12-17T18:22:59.558Z,46.73
2022-12-17T18:25:30.440Z,46.85
2022-12-17T18:28:02.615Z,46.71
2022-12-17T18:30:30.926Z,46.97
2022-12-17T18:32:59.198Z,47.24
2022-12-17T18:35:27.985Z,46.94
2022-12-17T18:37:56.261Z,47.57
2022-12-17T18:40:28.758Z,47.42
2022-12-17T18:43:18.594Z,47.59
2022-12-17T18:45:46.841Z,47.78
2022-12-17T18:48:15.111Z,47.39
2022-12-17T18:50:43.445Z,47.66
2022-12-17T18:53:11.876Z,47.62
2022-12-17T18:55:41.220Z,47.48
2022-12-17T18:58:11.191Z,48.29
2022-12-17T19:00:40.014Z,47.74
2022-12-17T19:03:10.172Z,48.25
2022-12-17T19:05:45.142Z,48.14
2022-12-17T19:08:14.901Z,48.15
2022-12-17T19:10:43.244Z,47.87
2022-12-17T19:13:13.000Z,47.87
2022-12-17T19:15:41.478Z,48.36
2022-12-17T19:18:09.782Z,48.56
2022-12-17T19:20:38.105Z,48.73
2022-12-17T19:23:06.442Z,48.06
2022-12-17T19:25:35.114Z,48.71
2022-12-17T19:28:05.202Z,48.39
2022-12-17T19:30:34.922Z,48.93
2022-12-17T19:33:03.301Z,48.52
2022-12-17T19:35:31.592Z,48.56
2022-12-17T19:37:59.878Z,48.82
2022-12-17T19:40:28.152Z,48.69
2022-12-17T19:42:56.769Z,48.83
2022-12-17T19:45:25.248Z,48.78
2022-12-17T19:47:55.329Z,49.31
2022-12-17T19:50:23.619Z,49.18
2022-12-17T19:52:52.350Z,49.07
2022-12-17T19:55:21.528Z,49.17
2022-12-17T19:57:49.844Z,49.26
2022-12-17T20:00:18.775Z,49.06
2022-12-17T20:02:47.169Z,49.67
2022-12-17T20:05:17.115Z,49.78
2022-12-17T20:07:45.372Z,49.80
2022-12-17T20:10:13.717Z,49.64
2022-12-17T20:12:42.101Z,49.94
2022-12-17T20:15:11.490Z,50.11
2022-12-17T20:17:39.785Z,50.06
2022-12-17T20:20:09.927Z,50.26
2022-12-17T20:22:39.609Z,50.13
2022-12-17T20:25:11.333Z,50.13
2022-12-17T20:27:40.289Z,50.31
2022-12-17T20:30:10.566Z,50.50
2022-12-17T20:32:38.865Z,50.55
2022-12-17T20:35:08.949Z,50.34
2022-12-17T20:37:37.279Z,50.69
2022-12-17T20:40:09.318Z,50.53
2022-12-17T20:42:37.760Z,50.50
2022-12-17T20:45:07.213Z,50.46
2022-12-17T20:47:35.589Z,50.60
2022-12-17T20:50:04.001Z,50.92
2022-12-17T20:52:32.361Z,50.70
2022-12-17T20:55:00.660Z,50.95
2022-12-17T20:57:30.398Z,50.89
2022-12-17T20:59:58.823Z,51.05
2022-12-17T21:02:29.783Z,51.05
2022-12-17T21:04:58.382Z,51.04
2022-12-17T21:07:26.887Z,51.09
2022-12-17T21:09:55.314Z,51.05
2022-12-17T21:12:43.823Z,51.06
2022-12-17T21:15:13.587Z,51.45
2022-12-17T21:17:41.980Z,51.54
2022-12-17T21:20:11.868Z,51.69
2022-12-17T21:22:41.790Z,51.49
2022-12-17T21:25:10.935Z,51.33
2022-12-17T21:27:39.359Z,51.19
2022-12-17T21:30:09.496Z,51.51
2022-12-17T21:32:41.692Z,51.56
2022-12-17T21:35:11.269Z,51.36
2022-12-17T21:37:39.678Z,51.28
2022-12-17T21:40:10.770Z,51.59
2022-12-17T21:42:56.279Z,51.68
2022-12-17T21:45:25.807Z,51.66
2022-12-17T21:47:55.732Z,51.59
2022-12-17T21:50:24.196Z,51.63
2022-12-17T21:52:52.591Z,51.66
2022-12-17T21:55:20.960Z,51.98
2022-12-17T21:57:49.382Z,51.77
2022-12-17T22:00:18.923Z,51.65
2022-12-17T22:02:47.441Z,51.81
2022-12-17T22:05:18.095Z,51.81
2022-12-17T22:07:47.872Z,51.75
2022-12-17T22:10:37.516Z,52.29
2022-12-17T22:13:23.720Z,52.33
2022-12-17T22:15:52.303Z,52.02
2022-12-17T22:18:20.849Z,52.05
2022-12-17T22:21:00.229Z,52.47
2022-12-17T22:23:31.828Z,52.27
2022-12-17T22:26:00.388Z,52.37
2022-12-17T22:28:28.754Z,52.36
2022-12-17T22:31:14.416Z,52.13
2022-12-17T22:34:25.949Z,52.61
2022-12-17T22:39:07.774Z,52.51
2022-12-17T22:44:28.636Z,52.22
2022-12-17T22:44:49.497Z,52.50
2022-12-17T22:45:18.308Z,52.47
2022-12-17T22:47:47.132Z,52.37
2022-12-17T22:50:15.681Z,52.72
2022-12-17T22:52:45.986Z,52.45
2022-12-17T22:55:16.227Z,52.70
2022-12-17T22:57:45.031Z,52.47
2022-12-17T23:00:18.707Z,52.27
2022-12-17T23:02:47.037Z,52.55
2022-12-17T23:05:15.664Z,52.61
2022-12-17T23:07:45.338Z,52.61
2022-12-17T23:10:13.674Z,52.38
2022-12-17T23:12:54.372Z,52.75
2022-12-17T23:15:31.122Z,52.43
2022-12-17T23:18:02.838Z,52.41
2022-12-17T23:20:34.785Z,52.83
2022-12-17T23:23:05.010Z,52.66
2022-12-17T23:25:33.558Z,52.72
2022-12-17T23:28:01.827Z,52.68
2022-12-17T23:30:30.168Z,52.62
2022-12-17T23:32:58.532Z,52.48
2022-12-17T23:35:26.856Z,52.58
2022-12-17T23:37:55.590Z,52.64
2022-12-17T23:40:25.855Z,52.51
2022-12-17T23:42:54.162Z,52.50
2022-12-17T23:45:22.527Z,52.61
2022-12-17T23:47:50.975Z,52.59
2022-12-17T23:50:19.585Z,52.51
2022-12-17T23:52:47.871Z,52.39
2022-12-17T23:55:16.150Z,52.55
2022-12-17T23:57:45.831Z,52.61
